Time;durP1;ratioP1;P1;durP2;ratioP2;P2;SDS_P1;SDS_P2;PMS_P1;PMS_P2;Temp;Humidity;BMP_temperature;BMP_pressure;BME280_temperature;BME280_humidity;BME280_pressure;Samples;Min_cycle;Max_cycle;Signal;HPM_P1;HPM_P2
2021/10/23 00:00:42;;;;;;;6.55;2.67;;;6.10;67.50;;;;;;5053221;28;20485;-66
2021/10/23 00:03:09;;;;;;;5.75;2.63;;;6.10;67.50;;;;;;5050954;28;20041;-67
2021/10/23 00:05:36;;;;;;;6.43;3.00;;;6.20;67.70;;;;;;5052514;28;20037;-67
2021/10/23 00:08:02;;;;;;;7.05;2.80;;;6.20;67.70;;;;;;5053466;28;20037;-67
2021/10/23 00:10:28;;;;;;;6.75;3.03;;;6.20;67.70;;;;;;5049514;28;20476;-66
2021/10/23 00:12:54;;;;;;;4.93;2.42;;;6.20;67.80;;;;;;5051314;28;20047;-67
2021/10/23 00:15:19;;;;;;;6.50;3.10;;;6.20;67.80;;;;;;5050813;28;20033;-67
2021/10/23 00:17:45;;;;;;;6.93;3.03;;;6.20;67.80;;;;;;5052106;28;20813;-66
2021/10/23 00:20:11;;;;;;;5.30;3.10;;;6.20;67.70;;;;;;5051019;28;20546;-66
2021/10/23 00:22:37;;;;;;;6.32;2.65;;;6.20;67.70;;;;;;5052812;28;20156;-67
2021/10/23 00:25:04;;;;;;;6.10;2.60;;;6.20;67.80;;;;;;5052534;28;20119;-67
2021/10/23 00:27:29;;;;;;;6.20;2.60;;;6.20;67.90;;;;;;5054112;28;20083;-66
2021/10/23 00:29:55;;;;;;;5.32;2.35;;;6.30;68.10;;;;;;5051516;28;20560;-66
2021/10/23 00:32:21;;;;;;;3.67;2.00;;;6.30;68.20;;;;;;5050960;28;20033;-67
2021/10/23 00:34:46;;;;;;;4.18;1.80;;;6.30;68.20;;;;;;5051561;28;20033;-66
2021/10/23 00:37:12;;;;;;;5.47;2.00;;;6.30;68.00;;;;;;5053469;28;20036;-67
2021/10/23 00:39:38;;;;;;;3.45;1.50;;;6.40;68.10;;;;;;5054388;28;20030;-67
2021/10/23 00:42:04;;;;;;;4.28;2.00;;;6.40;68.10;;;;;;5049647;28;20041;-67
2021/10/23 00:44:38;;;;;;;5.15;1.70;;;6.40;68.90;;;;;;5050344;28;20747;-66
2021/10/23 00:47:06;;;;;;;3.10;1.70;;;6.40;68.00;;;;;;5051568;28;20120;-66
2021/10/23 00:49:33;;;;;;;3.45;1.70;;;6.50;68.00;;;;;;5051255;28;20031;-67
2021/10/23 00:52:02;;;;;;;3.30;1.58;;;6.50;68.00;;;;;;5054881;28;20029;-67
2021/10/23 00:54:28;;;;;;;2.70;1.52;;;6.50;68.00;;;;;;5054290;28;20040;-67
2021/10/23 00:56:55;;;;;;;3.10;1.60;;;6.50;67.90;;;;;;5050839;28;20078;-66
2021/10/23 00:59:21;;;;;;;2.95;1.50;;;6.50;68.00;;;;;;5057716;28;20037;-67
2021/10/23 01:01:47;;;;;;;5.07;1.50;;;6.50;68.20;;;;;;5056203;28;20087;-67
2021/10/23 01:04:13;;;;;;;5.57;1.45;;;6.50;68.30;;;;;;5054397;28;20282;-67
2021/10/23 01:06:39;;;;;;;4.05;1.40;;;6.50;68.50;;;;;;5057798;28;20887;-67
2021/10/23 01:09:06;;;;;;;5.03;1.50;;;6.50;68.70;;;;;;5056796;28;20032;-67
2021/10/23 01:11:33;;;;;;;2.75;1.40;;;6.40;68.80;;;;;;5056179;28;20064;-67
2021/10/23 01:13:59;;;;;;;5.18;1.73;;;6.50;69.00;;;;;;5056444;28;20794;-67
2021/10/23 01:16:25;;;;;;;4.90;1.92;;;6.50;69.20;;;;;;5068653;28;20041;-67
2021/10/23 01:18:50;;;;;;;4.43;1.75;;;6.40;69.20;;;;;;5058454;28;20040;-67
2021/10/23 01:21:23;;;;;;;4.65;1.85;;;6.50;69.20;;;;;;5057000;28;20128;-67
2021/10/23 01:23:50;;;;;;;3.08;1.75;;;6.50;69.40;;;;;;5056261;28;20528;-67
2021/10/23 01:26:21;;;;;;;3.05;1.60;;;6.50;69.20;;;;;;5057588;28;20063;-67
2021/10/23 01:28:46;;;;;;;6.80;1.70;;;6.50;69.20;;;;;;5057966;28;20036;-66
2021/10/23 01:31:12;;;;;;;3.50;1.70;;;6.50;69.30;;;;;;5054746;28;20052;-66
2021/10/23 01:33:38;;;;;;;6.00;1.88;;;6.50;69.40;;;;;;5054560;28;20040;-66
2021/10/23 01:36:08;;;;;;;3.58;1.58;;;6.60;69.60;;;;;;5057128;28;20047;-66
2021/10/23 01:38:34;;;;;;;3.75;1.55;;;6.60;69.80;;;;;;5057157;28;20544;-67
2021/10/23 01:41:00;;;;;;;4.88;1.60;;;6.60;69.40;;;;;;5055705;28;20116;-67
2021/10/23 01:43:25;;;;;;;3.03;1.50;;;6.70;69.60;;;;;;5058773;28;20111;-67
2021/10/23 01:45:51;;;;;;;3.15;1.50;;;6.70;69.70;;;;;;5055972;28;20079;-67
2021/10/23 01:48:16;;;;;;;5.65;1.60;;;6.80;69.70;;;;;;5055723;28;20045;-66
2021/10/23 01:50:42;;;;;;;2.95;1.63;;;6.80;69.60;;;;;;5056326;28;23099;-66
2021/10/23 01:53:08;;;;;;;2.38;1.30;;;6.90;69.60;;;;;;5054256;28;20037;-66
2021/10/23 01:55:33;;;;;;;5.72;1.38;;;6.90;70.00;;;;;;5056997;28;20490;-67
2021/10/23 01:57:59;;;;;;;2.55;1.40;;;6.90;69.60;;;;;;5055352;28;20127;-67
2021/10/23 02:00:25;;;;;;;4.80;1.55;;;7.00;69.70;;;;;;5055388;28;20033;-68
2021/10/23 02:02:50;;;;;;;3.58;1.75;;;7.00;69.70;;;;;;5056471;28;22774;-68
2021/10/23 02:05:16;;;;;;;3.83;1.65;;;7.10;69.70;;;;;;5055603;28;20053;-66
2021/10/23 02:07:42;;;;;;;5.00;1.55;;;7.10;69.40;;;;;;5056753;28;20090;-67
2021/10/23 02:10:08;;;;;;;6.95;1.88;;;7.10;69.20;;;;;;5054840;28;20033;-67
2021/10/23 02:12:35;;;;;;;4.40;1.65;;;7.10;69.00;;;;;;5053965;28;20040;-67
2021/10/23 02:15:01;;;;;;;3.55;1.60;;;7.10;68.80;;;;;;5054877;28;20056;-67
2021/10/23 02:17:26;;;;;;;3.55;1.50;;;7.20;68.90;;;;;;5055967;28;20098;-67
2021/10/23 02:19:52;;;;;;;5.68;1.50;;;7.10;68.90;;;;;;5055555;28;20445;-67
2021/10/23 02:22:18;;;;;;;4.40;1.70;;;7.10;68.90;;;;;;5055904;28;20044;-67
2021/10/23 02:24:43;;;;;;;3.25;1.45;;;7.10;69.00;;;;;;5055774;28;20040;-67
2021/10/23 02:27:09;;;;;;;3.67;1.80;;;7.10;70.00;;;;;;5055172;28;20036;-67
2021/10/23 02:29:34;;;;;;;5.00;1.45;;;7.10;69.30;;;;;;5055930;28;20033;-67
2021/10/23 02:32:00;;;;;;;4.70;1.45;;;7.10;69.40;;;;;;5051596;28;20677;-67
2021/10/23 02:34:26;;;;;;;3.78;1.55;;;7.10;69.30;;;;;;5056350;28;20033;-66
2021/10/23 02:36:51;;;;;;;3.08;1.50;;;7.20;69.40;;;;;;5057180;28;20515;-67
2021/10/23 02:39:17;;;;;;;3.38;1.38;;;7.20;69.40;;;;;;5052922;28;20036;-67
2021/10/23 02:41:43;;;;;;;3.35;1.55;;;7.20;69.40;;;;;;5055592;28;20089;-67
2021/10/23 02:44:08;;;;;;;4.43;1.50;;;7.20;69.30;;;;;;5055822;28;20040;-67
2021/10/23 02:46:34;;;;;;;2.63;1.60;;;7.30;69.30;;;;;;5054119;28;20036;-67
2021/10/23 02:49:00;;;;;;;2.50;1.25;;;7.20;69.20;;;;;;5054795;28;20029;-67
2021/10/23 02:51:25;;;;;;;2.83;1.60;;;7.20;69.30;;;;;;5055870;28;20039;-66
2021/10/23 02:53:51;;;;;;;6.80;1.70;;;7.20;69.20;;;;;;5056166;28;20128;-66
2021/10/23 02:56:16;;;;;;;3.58;1.70;;;7.30;69.30;;;;;;5052847;28;20040;-66
2021/10/23 02:58:42;;;;;;;2.78;1.40;;;7.30;69.20;;;;;;5051359;28;20040;-67
2021/10/23 03:01:08;;;;;;;3.53;1.40;;;7.30;69.20;;;;;;5052930;28;20071;-67
2021/10/23 03:03:33;;;;;;;2.63;1.55;;;7.30;69.30;;;;;;5053904;28;20031;-67
2021/10/23 03:05:59;;;;;;;3.33;1.35;;;7.30;69.30;;;;;;5054291;28;20044;-67
2021/10/23 03:08:24;;;;;;;2.72;1.63;;;7.30;69.30;;;;;;5051895;28;20036;-66
2021/10/23 03:10:50;;;;;;;3.30;1.63;;;7.40;69.40;;;;;;5052202;28;20411;-67
2021/10/23 03:13:18;;;;;;;4.63;1.35;;;7.40;69.40;;;;;;5053130;28;20094;-67
2021/10/23 03:15:44;;;;;;;3.92;1.40;;;7.40;69.30;;;;;;5054252;28;20035;-67
2021/10/23 03:18:10;;;;;;;3.05;1.60;;;7.40;69.10;;;;;;5053358;28;20460;-67
2021/10/23 03:20:36;;;;;;;4.85;1.48;;;7.40;69.00;;;;;;5049807;28;20064;-67
2021/10/23 03:23:01;;;;;;;4.15;1.48;;;7.40;69.10;;;;;;5056155;28;20142;-67
2021/10/23 03:25:27;;;;;;;3.65;1.55;;;7.40;69.10;;;;;;5054807;28;20028;-67
2021/10/23 03:27:53;;;;;;;3.50;1.55;;;7.50;69.30;;;;;;5055739;28;20033;-67
2021/10/23 03:30:18;;;;;;;4.03;1.55;;;7.50;69.20;;;;;;5056203;28;20546;-67
2021/10/23 03:32:44;;;;;;;3.92;1.92;;;7.50;69.10;;;;;;5055204;28;20103;-67
2021/10/23 03:35:10;;;;;;;3.08;1.80;;;7.50;69.20;;;;;;5051283;28;20086;-66
2021/10/23 03:37:36;;;;;;;5.03;1.88;;;7.50;69.20;;;;;;5057421;28;20403;-67
2021/10/23 03:40:05;;;;;;;3.20;1.85;;;7.50;69.20;;;;;;5055668;28;20032;-66
2021/10/23 03:42:31;;;;;;;4.28;1.90;;;7.50;69.20;;;;;;5052675;28;20032;-67
2021/10/23 03:44:56;;;;;;;2.83;1.60;;;7.50;69.00;;;;;;5054709;28;20047;-67
2021/10/23 03:47:22;;;;;;;5.50;1.90;;;7.50;68.90;;;;;;5053549;28;20033;-67
2021/10/23 03:49:47;;;;;;;6.18;1.98;;;7.50;68.80;;;;;;5050556;28;20111;-67
2021/10/23 03:52:14;;;;;;;7.10;2.03;;;7.50;69.00;;;;;;5054438;28;20374;-65
2021/10/23 03:54:40;;;;;;;6.20;1.90;;;7.50;69.10;;;;;;5048882;28;20492;-66
2021/10/23 03:57:06;;;;;;;8.38;1.95;;;7.50;69.20;;;;;;5055498;28;20029;-66
2021/10/23 03:59:32;;;;;;;4.28;1.65;;;7.50;69.00;;;;;;5056659;28;20029;-67
2021/10/23 04:01:58;;;;;;;2.63;1.40;;;7.50;69.10;;;;;;5051338;28;20032;-66
2021/10/23 04:04:24;;;;;;;4.70;1.58;;;7.50;69.20;;;;;;5057960;28;20508;-67
2021/10/23 04:06:50;;;;;;;5.95;1.90;;;7.50;69.30;;;;;;5057457;28;20656;-67
2021/10/23 04:09:16;;;;;;;3.30;1.85;;;7.50;69.30;;;;;;5055199;28;20033;-67
2021/10/23 04:11:41;;;;;;;3.95;1.73;;;7.50;69.30;;;;;;5052509;28;20063;-67
2021/10/23 04:14:07;;;;;;;5.80;2.03;;;7.50;69.20;;;;;;5056785;28;20033;-67
2021/10/23 04:16:33;;;;;;;4.75;1.80;;;7.50;69.30;;;;;;5056172;28;20037;-66
2021/10/23 04:18:59;;;;;;;5.82;2.13;;;7.50;69.30;;;;;;5053702;28;20393;-65
2021/10/23 04:21:25;;;;;;;3.75;1.85;;;7.50;69.30;;;;;;5055371;28;20036;-67
2021/10/23 04:23:51;;;;;;;6.25;2.00;;;7.50;69.50;;;;;;5054951;28;20025;-67
2021/10/23 04:26:17;;;;;;;6.72;1.75;;;7.50;69.50;;;;;;5050591;28;20040;-66
2021/10/23 04:28:43;;;;;;;3.88;1.85;;;7.50;69.70;;;;;;5054851;28;20036;-67
2021/10/23 04:31:08;;;;;;;3.13;1.85;;;7.50;69.80;;;;;;5051292;28;20040;-67
2021/10/23 04:33:35;;;;;;;5.72;1.75;;;7.50;69.60;;;;;;5057733;28;20044;-67
2021/10/23 04:36:01;;;;;;;5.18;1.65;;;7.60;69.50;;;;;;5056829;28;20684;-67
2021/10/23 04:38:26;;;;;;;6.07;1.83;;;7.60;69.40;;;;;;5060135;28;20029;-67
2021/10/23 04:40:52;;;;;;;3.17;1.70;;;7.60;69.30;;;;;;5057881;28;20570;-67
2021/10/23 04:43:18;;;;;;;3.45;1.80;;;7.60;69.40;;;;;;5057880;28;20055;-67
2021/10/23 04:45:43;;;;;;;7.70;2.10;;;7.50;69.40;;;;;;5057929;28;20056;-66
2021/10/23 04:48:09;;;;;;;5.50;1.73;;;7.50;69.50;;;;;;5058516;28;20044;-67
2021/10/23 04:50:35;;;;;;;7.10;1.92;;;7.50;69.70;;;;;;5054620;28;20123;-67
2021/10/23 04:53:00;;;;;;;5.55;1.70;;;7.50;69.80;;;;;;5057738;28;20262;-67
2021/10/23 04:55:26;;;;;;;4.68;1.80;;;7.60;69.90;;;;;;5055909;28;20039;-67
2021/10/23 04:57:52;;;;;;;4.30;2.20;;;7.60;69.80;;;;;;5056648;28;20033;-67
2021/10/23 05:00:18;;;;;;;5.38;2.00;;;7.60;69.70;;;;;;5056809;28;20037;-67
2021/10/23 05:02:44;;;;;;;5.13;1.92;;;7.70;69.70;;;;;;5061073;28;20821;-67
2021/10/23 05:05:09;;;;;;;3.70;1.55;;;7.60;69.50;;;;;;5056661;28;20094;-67
2021/10/23 05:07:35;;;;;;;4.15;1.60;;;7.70;69.60;;;;;;5056323;28;20033;-67
2021/10/23 05:10:01;;;;;;;2.85;1.58;;;7.70;69.50;;;;;;5056653;28;20033;-67
2021/10/23 05:12:26;;;;;;;6.05;1.80;;;7.70;69.40;;;;;;5052825;28;20132;-67
2021/10/23 05:14:52;;;;;;;5.25;2.10;;;7.70;69.50;;;;;;5055412;28;20082;-67
2021/10/23 05:17:18;;;;;;;4.68;1.77;;;7.70;69.50;;;;;;5057749;28;20556;-67
2021/10/23 05:19:43;;;;;;;5.82;2.08;;;7.60;69.40;;;;;;5055626;28;20029;-67
2021/10/23 05:22:09;;;;;;;6.10;2.05;;;7.60;69.40;;;;;;5055242;28;20124;-67
2021/10/23 05:24:35;;;;;;;4.78;2.20;;;7.60;69.40;;;;;;5056626;28;20086;-67
2021/10/23 05:27:00;;;;;;;4.53;1.88;;;7.60;69.60;;;;;;5058506;28;20033;-67
2021/10/23 05:29:26;;;;;;;4.70;2.10;;;7.60;69.70;;;;;;5056929;28;20029;-67
2021/10/23 05:31:52;;;;;;;7.05;2.42;;;7.60;69.90;;;;;;5055770;28;20041;-67
2021/10/23 05:34:17;;;;;;;4.95;2.40;;;7.60;69.90;;;;;;5054061;28;20043;-67
2021/10/23 05:36:43;;;;;;;4.97;2.10;;;7.60;69.90;;;;;;5053151;28;20509;-67
2021/10/23 05:39:09;;;;;;;3.72;2.00;;;7.60;70.80;;;;;;5055730;28;20044;-66
2021/10/23 05:41:34;;;;;;;4.15;1.77;;;7.60;69.90;;;;;;5054791;28;20040;-67
2021/10/23 05:44:00;;;;;;;2.90;1.75;;;7.60;70.00;;;;;;5054079;28;20116;-67
2021/10/23 05:46:26;;;;;;;4.88;1.98;;;7.60;70.00;;;;;;5055624;28;20040;-67
2021/10/23 05:48:51;;;;;;;4.03;1.90;;;7.60;70.10;;;;;;5053759;28;20588;-67
2021/10/23 05:51:17;;;;;;;4.82;1.92;;;7.60;70.10;;;;;;5053495;28;20150;-66
2021/10/23 05:53:43;;;;;;;2.88;1.70;;;7.60;70.20;;;;;;5052585;28;20029;-67
2021/10/23 05:56:09;;;;;;;4.55;1.92;;;7.60;70.20;;;;;;5053401;28;20087;-67
2021/10/23 05:58:34;;;;;;;7.65;2.10;;;7.70;70.20;;;;;;5051373;28;20114;-65
2021/10/23 06:01:06;;;;;;;4.30;1.88;;;7.70;70.30;;;;;;5054478;28;20667;-67
2021/10/23 06:03:34;;;;;;;6.30;1.55;;;7.70;70.40;;;;;;5051389;28;20033;-66
2021/10/23 06:06:00;;;;;;;2.13;1.83;;;7.70;70.40;;;;;;5054004;28;20041;-67
2021/10/23 06:08:26;;;;;;;5.25;1.70;;;7.70;70.50;;;;;;5047029;28;20025;-66
2021/10/23 06:10:51;;;;;;;3.45;1.70;;;7.70;71.30;;;;;;5057943;28;20041;-67
2021/10/23 06:13:18;;;;;;;5.13;1.60;;;7.80;70.50;;;;;;5056288;28;20403;-67
2021/10/23 06:15:44;;;;;;;3.67;1.73;;;7.80;70.50;;;;;;5055011;28;20033;-67
2021/10/23 06:18:09;;;;;;;5.75;1.67;;;7.90;70.60;;;;;;5056934;28;21158;-67
2021/10/23 06:20:35;;;;;;;3.58;1.80;;;7.90;70.50;;;;;;5053799;28;20044;-67
2021/10/23 06:23:01;;;;;;;4.20;1.40;;;8.00;70.50;;;;;;5056341;28;20054;-67
2021/10/23 06:25:26;;;;;;;4.63;2.20;;;7.90;71.30;;;;;;5055570;28;20115;-67
2021/10/23 06:27:52;;;;;;;5.35;1.73;;;8.00;70.40;;;;;;5055368;28;20032;-67
2021/10/23 06:30:18;;;;;;;6.75;1.90;;;8.00;70.30;;;;;;5054577;28;20043;-67
2021/10/23 06:32:51;;;;;;;5.82;2.35;;;8.00;70.20;;;;;;5054355;28;20483;-67
2021/10/23 06:35:18;;;;;;;7.13;2.40;;;8.00;70.40;;;;;;5055476;28;20099;-67
2021/10/23 06:37:44;;;;;;;6.45;2.50;;;8.00;70.20;;;;;;5058401;28;20029;-67
2021/10/23 06:40:10;;;;;;;6.60;2.60;;;8.00;71.10;;;;;;5054299;28;20041;-67
2021/10/23 06:42:39;;;;;;;14.38;3.10;;;8.00;70.30;;;;;;5056995;28;20044;-67
2021/10/23 06:45:09;;;;;;;7.13;2.00;;;8.00;70.20;;;;;;5056478;28;20067;-67
2021/10/23 06:47:36;;;;;;;7.70;2.40;;;8.10;70.20;;;;;;5055315;28;20698;-67
2021/10/23 06:50:03;;;;;;;7.55;2.40;;;8.20;70.30;;;;;;5055256;28;20534;-67
2021/10/23 06:52:29;;;;;;;5.32;2.90;;;8.20;70.30;;;;;;5051373;28;20029;-64
2021/10/23 06:54:54;;;;;;;6.32;2.00;;;8.20;70.20;;;;;;5035567;28;20405;-67
2021/10/23 06:57:20;;;;;;;4.38;1.98;;;8.20;70.20;;;;;;5054098;28;20626;-67
2021/10/23 06:59:45;;;;;;;5.30;2.38;;;8.20;70.20;;;;;;5040207;28;20052;-67
2021/10/23 07:02:11;;;;;;;7.72;2.20;;;8.30;70.40;;;;;;5044946;28;20459;-67
2021/10/23 07:04:37;;;;;;;5.95;2.28;;;8.30;70.40;;;;;;5052320;28;20116;-66
2021/10/23 07:07:02;;;;;;;4.68;2.03;;;8.40;70.50;;;;;;5042674;28;20032;-67
2021/10/23 07:09:28;;;;;;;7.07;2.50;;;8.40;70.40;;;;;;5045770;28;20037;-64
2021/10/23 07:11:54;;;;;;;6.28;2.00;;;8.50;70.40;;;;;;5044338;28;20044;-68
2021/10/23 07:14:19;;;;;;;4.28;2.28;;;8.50;70.20;;;;;;5044890;28;20171;-67
2021/10/23 07:16:45;;;;;;;6.43;2.28;;;8.50;70.00;;;;;;5048008;28;20044;-67
2021/10/23 07:19:11;;;;;;;4.90;1.92;;;8.50;69.90;;;;;;5053834;28;20048;-68
2021/10/23 07:21:36;;;;;;;9.18;2.20;;;8.50;70.20;;;;;;5060095;28;20541;-67
2021/10/23 07:24:02;;;;;;;5.30;1.77;;;8.50;70.20;;;;;;5054907;28;20600;-67
2021/10/23 07:26:28;;;;;;;7.22;2.20;;;8.40;70.20;;;;;;5046357;28;20036;-68
2021/10/23 07:28:54;;;;;;;7.60;2.10;;;8.40;70.20;;;;;;5040774;28;20040;-66
2021/10/23 07:31:19;;;;;;;7.13;3.20;;;8.40;70.20;;;;;;5042917;28;20033;-67
2021/10/23 07:33:45;;;;;;;3.92;2.20;;;8.40;70.40;;;;;;5043612;28;20451;-68
2021/10/23 07:36:14;;;;;;;4.72;2.05;;;8.40;70.50;;;;;;5045810;28;20046;-65
2021/10/23 07:38:39;;;;;;;6.13;2.20;;;8.40;70.70;;;;;;5039841;28;20694;-67
2021/10/23 07:41:06;;;;;;;5.25;2.22;;;8.50;70.90;;;;;;5041908;28;20048;-67
2021/10/23 07:43:33;;;;;;;5.18;1.98;;;8.50;70.90;;;;;;5041689;28;20037;-67
2021/10/23 07:45:58;;;;;;;5.25;2.28;;;8.50;70.80;;;;;;5041869;28;20136;-67
2021/10/23 07:48:24;;;;;;;5.57;2.45;;;8.50;70.70;;;;;;5039647;28;20033;-68
2021/10/23 07:50:49;;;;;;;15.32;4.43;;;8.60;70.50;;;;;;5042020;28;20053;-66
2021/10/23 07:53:16;;;;;;;7.88;2.80;;;8.60;70.50;;;;;;5040853;28;20140;-68
2021/10/23 07:55:42;;;;;;;5.57;2.75;;;8.70;70.60;;;;;;5040681;28;20036;-67
2021/10/23 07:58:08;;;;;;;7.28;2.85;;;8.70;70.50;;;;;;5041918;28;20091;-68
2021/10/23 08:00:34;;;;;;;5.60;2.38;;;8.80;71.40;;;;;;5040838;28;20106;-68
2021/10/23 08:03:01;;;;;;;9.27;2.70;;;8.80;71.20;;;;;;5039359;28;20029;-64
2021/10/23 08:05:30;;;;;;;9.20;3.65;;;8.80;70.20;;;;;;5045131;28;20089;-68
2021/10/23 08:07:56;;;;;;;9.50;3.60;;;8.90;70.40;;;;;;5057571;28;20033;-67
2021/10/23 08:10:23;;;;;;;9.00;4.20;;;8.90;70.30;;;;;;5058973;28;20501;-68
2021/10/23 08:12:49;;;;;;;8.57;3.38;;;8.90;70.40;;;;;;5057179;28;20028;-69
2021/10/23 08:15:15;;;;;;;6.35;3.10;;;9.00;70.40;;;;;;5058287;28;20025;-68
2021/10/23 08:17:42;;;;;;;4.47;2.65;;;8.90;70.40;;;;;;5058851;28;20026;-68
2021/10/23 08:20:08;;;;;;;5.43;2.35;;;9.00;70.60;;;;;;5059537;28;20082;-67
2021/10/23 08:22:35;;;;;;;6.82;2.63;;;8.90;70.60;;;;;;5057459;28;20508;-68
2021/10/23 08:25:03;;;;;;;6.78;2.55;;;9.00;70.60;;;;;;5058975;28;20065;-67
2021/10/23 08:27:33;;;;;;;7.10;2.38;;;9.00;70.70;;;;;;5057481;28;20039;-69
2021/10/23 08:30:01;;;;;;;8.40;2.50;;;9.00;70.60;;;;;;5059585;28;20037;-68
2021/10/23 08:32:27;;;;;;;5.63;2.45;;;9.00;70.60;;;;;;5054506;28;20036;-67
2021/10/23 08:34:52;;;;;;;5.50;2.20;;;9.00;70.50;;;;;;5057894;28;20029;-68
2021/10/23 08:37:18;;;;;;;8.20;1.80;;;9.10;70.60;;;;;;5055842;28;20060;-69
2021/10/23 08:39:44;;;;;;;7.70;1.95;;;9.10;70.60;;;;;;5059174;28;20145;-69
2021/10/23 08:42:09;;;;;;;6.38;2.00;;;9.20;70.70;;;;;;5059117;28;20217;-68
2021/10/23 08:44:38;;;;;;;3.95;2.10;;;9.20;70.60;;;;;;5057439;28;20144;-68
2021/10/23 08:47:05;;;;;;;5.82;2.20;;;9.20;70.50;;;;;;5058607;28;20059;-68
2021/10/23 08:49:31;;;;;;;4.97;2.35;;;9.30;70.40;;;;;;5058337;28;20128;-68
2021/10/23 08:51:58;;;;;;;5.47;1.73;;;9.30;70.40;;;;;;5058372;28;20047;-67
2021/10/23 08:54:24;;;;;;;7.38;2.22;;;9.40;70.40;;;;;;5056797;28;20039;-68
2021/10/23 08:56:50;;;;;;;6.35;2.10;;;9.50;70.30;;;;;;5059514;28;20033;-68
2021/10/23 08:59:15;;;;;;;5.57;1.88;;;9.50;70.10;;;;;;5056784;28;20102;-68
2021/10/23 09:01:41;;;;;;;5.13;1.98;;;9.60;69.90;;;;;;5057624;28;20040;-68
2021/10/23 09:04:07;;;;;;;3.88;2.22;;;9.60;69.90;;;;;;5057835;28;20067;-69
2021/10/23 09:06:36;;;;;;;6.65;2.10;;;9.60;69.70;;;;;;5062280;28;20029;-68
2021/10/23 09:09:13;;;;;;;4.85;2.30;;;9.70;69.90;;;;;;5057890;28;20045;-68
2021/10/23 09:11:44;;;;;;;4.18;1.83;;;9.70;70.00;;;;;;5055939;28;20029;-68
2021/10/23 09:14:27;;;;;;;3.67;1.60;;;9.80;70.00;;;;;;5058676;28;20029;-68
2021/10/23 09:17:08;;;;;;;5.60;1.88;;;9.90;70.00;;;;;;5058215;28;20403;-68
2021/10/23 09:19:44;;;;;;;4.00;1.67;;;9.90;69.90;;;;;;5056313;28;20043;-68
2021/10/23 09:22:32;;;;;;;3.33;1.75;;;10.00;69.80;;;;;;5058501;28;20064;-69
2021/10/23 09:25:27;;;;;;;8.30;2.75;;;10.10;69.70;;;;;;5057341;28;20037;-67
2021/10/23 09:28:01;;;;;;;5.53;1.70;;;10.20;69.50;;;;;;5057834;28;20447;-68
2021/10/23 09:30:49;;;;;;;3.60;1.38;;;10.20;69.20;;;;;;5057127;28;20065;-68
2021/10/23 09:33:26;;;;;;;2.75;1.30;;;10.30;69.10;;;;;;5056881;28;20041;-68
2021/10/23 09:36:00;;;;;;;4.32;1.10;;;10.40;68.90;;;;;;5053444;28;20084;-67
2021/10/23 09:38:32;;;;;;;9.93;1.52;;;10.40;68.60;;;;;;5057042;28;20034;-68
2021/10/23 09:41:12;;;;;;;2.83;1.10;;;10.50;68.50;;;;;;5057680;28;20040;-68
2021/10/23 09:43:38;;;;;;;5.57;1.50;;;10.60;68.10;;;;;;5053492;28;20111;-68
2021/10/23 09:46:08;;;;;;;4.80;1.58;;;10.60;68.10;;;;;;5056438;28;20550;-68
2021/10/23 09:48:41;;;;;;;3.15;1.50;;;10.70;68.00;;;;;;5057330;28;20039;-68
2021/10/23 09:51:27;;;;;;;4.28;1.30;;;10.80;68.00;;;;;;5056852;28;20040;-67
2021/10/23 09:54:00;;;;;;;3.08;1.60;;;10.80;67.70;;;;;;5055353;28;20043;-71
2021/10/23 09:56:30;;;;;;;4.35;1.38;;;10.90;67.90;;;;;;5056686;28;20083;-68
2021/10/23 09:59:04;;;;;;;4.18;1.83;;;11.00;68.00;;;;;;5055056;28;20044;-68
2021/10/23 10:01:35;;;;;;;3.50;1.73;;;11.00;68.00;;;;;;5057303;28;20033;-67
2021/10/23 10:04:09;;;;;;;4.75;1.70;;;11.10;68.00;;;;;;5058031;28;20039;-68
2021/10/23 10:06:48;;;;;;;6.72;1.73;;;11.20;67.60;;;;;;5058459;28;20352;-68
2021/10/23 10:09:25;;;;;;;4.60;1.90;;;11.20;67.40;;;;;;5059166;28;20087;-68
2021/10/23 10:11:53;;;;;;;4.07;1.70;;;11.30;67.30;;;;;;5060898;27;20114;-68
2021/10/23 10:14:23;;;;;;;3.65;1.67;;;11.30;67.20;;;;;;5059115;28;20032;-68
2021/10/23 10:16:49;;;;;;;4.00;1.73;;;11.40;67.20;;;;;;5058142;28;20040;-68
2021/10/23 10:19:16;;;;;;;3.55;2.10;;;11.40;67.20;;;;;;5059325;28;20037;-68
2021/10/23 10:21:42;;;;;;;6.35;2.42;;;11.40;67.00;;;;;;5058222;28;20102;-68
2021/10/23 10:24:25;;;;;;;5.50;2.30;;;11.50;66.60;;;;;;5058747;28;20047;-68
2021/10/23 10:27:13;;;;;;;5.65;2.17;;;11.50;66.20;;;;;;5058290;28;20048;-68
2021/10/23 10:29:53;;;;;;;5.72;2.50;;;11.50;66.10;;;;;;5058238;28;20428;-68
2021/10/23 10:43:09;;;;;;;6.00;2.58;;;11.60;66.40;;;;;;5056751;28;20414;-68
2021/10/23 10:45:47;;;;;;;5.25;2.53;;;11.60;66.40;;;;;;5060395;28;20036;-68
2021/10/23 10:48:27;;;;;;;4.47;2.08;;;11.60;66.40;;;;;;5055243;28;20045;-68
2021/10/23 10:51:04;;;;;;;3.97;1.70;;;11.60;66.20;;;;;;5054120;28;20517;-68
2021/10/23 10:53:38;;;;;;;3.78;2.20;;;11.70;65.70;;;;;;5055769;28;20033;-68
2021/10/23 10:56:14;;;;;;;2.83;2.00;;;11.70;66.80;;;;;;5057507;28;20461;-68
2021/10/23 10:58:57;;;;;;;4.30;1.75;;;11.70;65.50;;;;;;5055517;28;20663;-68
2021/10/23 11:01:27;;;;;;;4.65;1.85;;;11.80;65.30;;;;;;5055919;28;20028;-67
2021/10/23 11:04:02;;;;;;;6.07;1.70;;;11.80;65.70;;;;;;5058450;28;20500;-68
2021/10/23 11:06:34;;;;;;;3.58;1.73;;;11.90;65.50;;;;;;5057979;28;20036;-68
2021/10/23 11:09:27;;;;;;;2.15;1.30;;;12.00;65.50;;;;;;5057698;28;20058;-68
2021/10/23 11:11:59;;;;;;;2.28;1.58;;;12.10;64.90;;;;;;5048543;28;20497;-68
2021/10/23 11:14:25;;;;;;;4.82;1.58;;;12.20;65.00;;;;;;5056354;28;20035;-68
2021/10/23 11:17:03;;;;;;;1.75;1.35;;;12.30;64.50;;;;;;5058728;28;20037;-68
2021/10/23 11:19:28;;;;;;;3.85;1.50;;;12.40;63.50;;;;;;5057527;28;20479;-68
2021/10/23 11:22:09;;;;;;;1.45;1.08;;;12.50;63.40;;;;;;5057599;28;20043;-68
2021/10/23 11:25:03;;;;;;;2.13;0.82;;;12.60;62.20;;;;;;5054550;28;20029;-68
2021/10/23 11:27:41;;;;;;;1.27;1.10;;;12.60;61.20;;;;;;5053071;28;20079;-68
2021/10/23 11:30:07;;;;;;;3.97;1.40;;;12.80;61.10;;;;;;5055838;28;20052;-68
2021/10/23 11:32:34;;;;;;;3.95;1.42;;;12.80;61.60;;;;;;5055415;28;20503;-69
2021/10/23 11:35:00;;;;;;;3.97;1.80;;;12.80;61.50;;;;;;5056186;28;20032;-68
2021/10/23 11:37:26;;;;;;;2.40;1.50;;;12.90;61.50;;;;;;5055357;28;20126;-68
2021/10/23 11:39:59;;;;;;;5.05;1.83;;;13.00;61.20;;;;;;5055848;28;20337;-68
2021/10/23 11:42:27;;;;;;;2.55;1.50;;;13.00;60.50;;;;;;5054513;28;20025;-68
2021/10/23 11:45:14;;;;;;;2.00;1.45;;;13.10;60.70;;;;;;5055419;28;20123;-68
2021/10/23 11:47:40;;;;;;;1.80;1.10;;;13.10;60.50;;;;;;5045933;28;20025;-69
2021/10/23 11:50:27;;;;;;;2.17;1.40;;;13.10;59.70;;;;;;5055300;28;20063;-68
2021/10/23 11:53:02;;;;;;;1.13;0.93;;;13.10;59.20;;;;;;5057636;28;20110;-68
2021/10/23 11:55:30;;;;;;;2.22;1.02;;;13.20;59.10;;;;;;5055412;28;20037;-68
2021/10/23 11:58:00;;;;;;;4.55;1.17;;;13.20;59.30;;;;;;5056682;28;20079;-69
2021/10/23 12:00:28;;;;;;;2.83;1.13;;;13.20;59.00;;;;;;5056602;28;20029;-69
2021/10/23 12:03:00;;;;;;;1.98;1.23;;;13.30;59.00;;;;;;5055924;28;20036;-69
2021/10/23 12:05:38;;;;;;;2.65;1.10;;;13.30;58.60;;;;;;5057220;28;20059;-68
2021/10/23 12:08:24;;;;;;;2.67;1.13;;;13.30;58.30;;;;;;5057039;28;20033;-68
2021/10/23 12:11:09;;;;;;;1.65;1.20;;;13.40;57.10;;;;;;5053685;28;20043;-69
2021/10/23 12:13:53;;;;;;;1.90;0.65;;;13.40;56.20;;;;;;5056623;28;20108;-68
2021/10/23 12:16:40;;;;;;;2.40;0.73;;;13.40;55.80;;;;;;5055902;28;20040;-68
2021/10/23 12:19:17;;;;;;;2.10;0.80;;;13.40;54.80;;;;;;5055592;28;20032;-68
2021/10/23 12:21:46;;;;;;;1.40;0.90;;;13.30;56.00;;;;;;5054347;28;20099;-68
2021/10/23 12:24:31;;;;;;;3.22;1.10;;;13.30;56.50;;;;;;5053808;28;20500;-68
2021/10/23 12:27:07;;;;;;;0.88;0.80;;;13.30;54.50;;;;;;5052393;28;20037;-69
2021/10/23 12:29:50;;;;;;;1.83;1.17;;;13.30;55.90;;;;;;5055253;28;20033;-68
2021/10/23 12:32:21;;;;;;;1.35;1.00;;;13.30;56.20;;;;;;5057089;28;20441;-68
2021/10/23 12:34:49;;;;;;;2.08;1.15;;;13.40;56.60;;;;;;5055261;28;20032;-68
2021/10/23 12:37:25;;;;;;;1.70;0.95;;;13.40;56.20;;;;;;5055910;28;20041;-69
2021/10/23 12:40:01;;;;;;;1.92;1.20;;;13.40;56.20;;;;;;5060276;28;20432;-68
2021/10/23 12:42:26;;;;;;;3.22;1.10;;;13.40;54.40;;;;;;5051162;28;20064;-67
2021/10/23 12:44:52;;;;;;;1.55;0.90;;;13.40;55.60;;;;;;5047951;28;20116;-67
2021/10/23 12:47:17;;;;;;;2.50;1.20;;;13.40;56.10;;;;;;5050583;28;20067;-68
2021/10/23 12:49:43;;;;;;;1.63;1.10;;;13.30;56.10;;;;;;5049412;28;20033;-68
2021/10/23 12:52:08;;;;;;;1.05;0.80;;;13.40;56.50;;;;;;5050421;28;20531;-68
2021/10/23 12:54:34;;;;;;;2.17;1.05;;;13.30;56.30;;;;;;5050270;28;20060;-68
2021/10/23 12:57:00;;;;;;;1.02;0.93;;;13.30;56.50;;;;;;5050882;28;20041;-68
2021/10/23 12:59:25;;;;;;;2.63;1.00;;;13.30;56.70;;;;;;5051226;28;20424;-68
2021/10/23 13:01:51;;;;;;;1.23;1.00;;;13.30;56.80;;;;;;5053493;28;20190;-68
2021/10/23 13:04:16;;;;;;;1.80;1.10;;;13.30;56.70;;;;;;5050223;28;20777;-68
2021/10/23 13:06:42;;;;;;;2.15;1.15;;;13.30;56.60;;;;;;5053783;28;20031;-68
2021/10/23 13:09:08;;;;;;;2.90;1.13;;;13.30;56.60;;;;;;5051734;28;20041;-68
2021/10/23 13:11:37;;;;;;;3.67;1.15;;;13.40;56.50;;;;;;5052787;28;20036;-68